ENBN/BNN METAR and TAF weather

Enter ICAO airport designator
Station Type Date Time Source
ENBN METAR 2020/03/31 21:50 UTC NOAA

ENBN 312150Z AUTO 32010KT 9999NDV SCT056/// OVC110/// 04/M00 Q1004


Station Type Date Time Source
ENBN Decoded METAR 2020/03/31 21:50 UTC NOAA

Bronnoysund / Bronnoy, Norway (ENBN) 65-28N 012-13E 9M
Mar 31, 2020 - 05:50 PM EDT / 2020.03.31 2150 UTC
Wind: from the NW (320 degrees) at 12 MPH (10 KT):0
Sky conditions: overcast
Temperature: 39 F (4 C)
Dew Point: 32 F (0 C)
Relative Humidity: 75%
Pressure (altimeter): 29.65 in. Hg (1004 hPa)
ob: ENBN 312150Z AUTO 32010KT 9999NDV SCT056/// OVC110/// 04/M00 Q1004
cycle: 22

Station Type Date Time Source
ENBN TAF 2011/03/27 18:12 UTC NOAA

TAF TAF ENBN 261700Z 2618/2718 CNL

Example: see airport list